Time;durP1;ratioP1;P1;durP2;ratioP2;P2;SDS_P1;SDS_P2;PMS_P1;PMS_P2;Temp;Humidity;BMP_temperature;BMP_pressure;BME280_temperature;BME280_humidity;BME280_pressure;Samples;Min_cycle;Max_cycle;Signal;HPM_P1;HPM_P2
2021/01/02 00:00:52;;;;;;;8.37;6.23;;;;;;;2.49;100.00;96909.47;6263195;23;20541;-96
2021/01/02 00:04:06;;;;;;;8.97;5.77;;;;;;;2.55;100.00;96915.13;6256572;23;20173;-96
2021/01/02 00:06:54;;;;;;;23.53;13.33;;;;;;;2.62;100.00;96921.63;6135090;23;20239;-96
2021/01/02 00:09:26;;;;;;;15.23;9.53;;;;;;;2.50;100.00;96918.97;6256455;23;20212;-96
2021/01/02 00:12:20;;;;;;;7.70;5.47;;;;;;;2.43;100.00;96923.69;6264574;23;20157;-96
2021/01/02 00:14:59;;;;;;;6.07;4.90;;;;;;;2.75;100.00;96928.66;6265564;23;20158;-96
2021/01/02 00:17:45;;;;;;;5.77;4.67;;;;;;;2.62;100.00;96934.59;6264541;23;20199;-96
2021/01/02 00:20:31;;;;;;;5.53;4.90;;;;;;;2.46;100.00;96930.41;6263915;23;20161;-96
2021/01/02 00:23:00;;;;;;;6.23;4.53;;;;;;;2.40;100.00;96929.06;6265741;23;20154;-96
2021/01/02 00:25:31;;;;;;;7.10;4.40;;;;;;;2.45;100.00;96941.72;6259929;23;20169;-96
2021/01/02 00:28:18;;;;;;;8.10;4.97;;;;;;;2.25;100.00;96933.41;6256402;23;20257;-96
2021/01/02 00:31:08;;;;;;;6.13;4.10;;;;;;;2.41;100.00;96941.09;6260117;23;20155;-96
2021/01/02 00:33:57;;;;;;;5.67;4.53;;;;;;;2.47;100.00;96943.31;6266314;23;20168;-96
2021/01/02 00:36:33;;;;;;;4.97;4.47;;;;;;;2.33;100.00;96949.34;6265824;23;20582;-96
2021/01/02 00:39:02;;;;;;;8.00;4.13;;;;;;;2.46;100.00;96946.84;6267792;23;20230;-96
2021/01/02 00:41:45;;;;;;;4.73;4.23;;;;;;;2.75;100.00;96954.63;6266071;23;20173;-96
2021/01/02 00:44:15;;;;;;;6.47;3.97;;;;;;;2.50;100.00;96947.50;6266213;23;20154;-96
2021/01/02 00:46:44;;;;;;;5.23;4.10;;;;;;;2.64;100.00;96950.09;6266038;23;20665;-96
2021/01/02 00:49:13;;;;;;;9.43;4.10;;;;;;;2.38;100.00;96946.47;6268634;23;20166;-96
2021/01/02 00:51:49;;;;;;;4.97;4.47;;;;;;;2.68;100.00;96945.56;6267258;23;20180;-96
2021/01/02 00:54:31;;;;;;;3.83;3.47;;;;;;;2.75;100.00;96945.06;6266689;23;20169;-96
2021/01/02 00:57:03;;;;;;;5.73;3.87;;;;;;;2.94;100.00;96949.97;6266576;23;20196;-96
2021/01/02 00:59:55;;;;;;;4.77;4.27;;;;;;;2.50;100.00;96947.50;6270001;23;20162;-96
2021/01/02 01:02:48;;;;;;;5.37;4.30;;;;;;;2.61;100.00;96956.28;6267471;23;20173;-96
2021/01/02 01:05:24;;;;;;;6.67;5.47;;;;;;;2.49;100.00;96954.41;6267789;23;20153;-93
2021/01/02 01:07:55;;;;;;;5.07;4.47;;;;;;;2.29;100.00;96952.22;6265861;23;20641;-93
2021/01/02 01:10:24;;;;;;;10.67;5.67;;;;;;;2.22;100.00;96956.06;6267688;23;20209;-96
2021/01/02 01:13:00;;;;;;;8.10;5.77;;;;;;;2.19;100.00;96961.47;6264543;23;20217;-96
2021/01/02 01:15:28;;;;;;;7.00;5.07;;;;;;;2.09;100.00;96950.78;6260540;23;20303;-96
2021/01/02 01:18:19;;;;;;;8.57;4.63;;;;;;;2.46;100.00;96956.38;6264186;22;20679;-96
2021/01/02 01:20:59;;;;;;;4.33;3.93;;;;;;;2.32;100.00;96952.88;6260109;23;20169;-96
2021/01/02 01:23:30;;;;;;;6.70;5.27;;;;;;;2.11;100.00;96960.16;6258383;23;20165;-96
2021/01/02 01:26:37;;;;;;;6.00;5.03;;;;;;;2.16;100.00;96954.69;6258667;23;20180;-96
2021/01/02 01:29:04;;;;;;;6.33;5.20;;;;;;;2.01;100.00;96956.41;6225634;23;20176;-96
2021/01/02 01:31:44;;;;;;;7.17;5.07;;;;;;;2.31;100.00;96960.72;6258775;23;20173;-96
2021/01/02 01:34:20;;;;;;;5.30;4.23;;;;;;;2.54;100.00;96964.53;6262832;23;20161;-96
2021/01/02 01:36:48;;;;;;;5.27;4.37;;;;;;;1.97;100.00;96961.84;6265347;23;20629;-96
2021/01/02 01:39:16;;;;;;;7.90;3.93;;;;;;;1.90;100.00;96962.22;6256587;23;20184;-94
2021/01/02 01:41:45;;;;;;;5.27;4.30;;;;;;;1.79;100.00;96958.56;6262061;23;20168;-96
2021/01/02 01:55:06;;;;;;;5.07;4.57;;;;;;;1.93;100.00;96952.59;6184840;22;20183;-96
2021/01/02 02:00:22;;;;;;;;;;;;;;;;;;;;;
2021/01/02 02:03:02;;;;;;;5.73;5.20;;;;;;;2.39;100.00;96942.97;6236187;22;21074;-86
2021/01/02 02:05:52;;;;;;;4.43;3.57;;;;;;;2.50;100.00;96958.72;6215209;23;20154;-86
2021/01/02 02:08:40;;;;;;;5.23;3.93;;;;;;;2.50;100.00;96950.91;6215476;23;20224;-86
2021/01/02 02:11:35;;;;;;;6.00;4.70;;;;;;;2.47;100.00;96948.50;6215420;23;20241;-86
2021/01/02 02:14:13;;;;;;;7.93;5.43;;;;;;;2.41;100.00;96948.88;6208103;23;20170;-86
2021/01/02 02:16:50;;;;;;;6.30;4.97;;;;;;;2.54;100.00;96947.22;6215631;23;20574;-86
2021/01/02 02:19:47;;;;;;;4.23;3.83;;;;;;;2.11;100.00;96943.72;6215511;23;20169;-86
2021/01/02 02:22:16;;;;;;;5.53;4.37;;;;;;;2.07;100.00;96937.88;6204248;23;20174;-86
2021/01/02 02:24:44;;;;;;;7.10;4.90;;;;;;;2.06;100.00;96936.22;6214917;23;20178;-87
2021/01/02 02:27:14;;;;;;;5.77;4.40;;;;;;;2.21;100.00;96936.25;6214974;23;20177;-87
2021/01/02 02:29:59;;;;;;;7.00;4.40;;;;;;;2.20;100.00;96942.38;6215095;23;20170;-86
2021/01/02 02:32:34;;;;;;;6.73;5.10;;;;;;;2.31;100.00;96937.38;6215399;23;20162;-86
2021/01/02 02:35:04;;;;;;;7.37;4.83;;;;;;;2.25;100.00;96937.72;6215096;23;20240;-86
2021/01/02 02:37:31;;;;;;;6.30;4.60;;;;;;;2.30;100.00;96941.72;6215157;23;20194;-86
2021/01/02 02:39:58;;;;;;;6.27;4.60;;;;;;;2.44;100.00;96940.06;6215077;23;20638;-86
2021/01/02 02:42:30;;;;;;;5.17;4.27;;;;;;;2.29;100.00;96934.88;6214882;23;20177;-86
2021/01/02 02:45:00;;;;;;;6.53;4.13;;;;;;;1.95;100.00;96936.03;6215063;23;20201;-86
2021/01/02 02:47:31;;;;;;;6.53;4.50;;;;;;;1.67;100.00;96934.19;6215231;23;20157;-86
2021/01/02 02:50:00;;;;;;;4.93;4.27;;;;;;;1.86;100.00;96931.38;6215655;23;20165;-86
2021/01/02 02:52:34;;;;;;;7.47;4.73;;;;;;;1.80;100.00;96934.31;6215354;23;20178;-87
2021/01/02 02:55:02;;;;;;;9.43;5.00;;;;;;;1.64;100.00;96948.16;6215512;23;20159;-87
2021/01/02 02:57:31;;;;;;;7.47;4.60;;;;;;;1.53;100.00;96939.31;6214317;23;20217;-86
2021/01/02 02:59:58;;;;;;;7.63;5.13;;;;;;;1.47;100.00;96950.84;6214932;23;20174;-87
2021/01/02 03:02:27;;;;;;;4.60;3.87;;;;;;;1.43;100.00;96944.19;6214697;23;20170;-86
2021/01/02 03:04:54;;;;;;;5.43;4.83;;;;;;;1.50;100.00;96942.91;6214778;23;20206;-87
2021/01/02 03:07:22;;;;;;;4.37;3.87;;;;;;;1.48;100.00;96942.16;6214624;23;20174;-86
2021/01/02 03:09:49;;;;;;;6.97;4.60;;;;;;;1.53;100.00;96949.69;6214794;23;20249;-86
2021/01/02 03:12:16;;;;;;;5.63;4.33;;;;;;;1.55;100.00;96948.66;6214480;23;20661;-86
2021/01/02 03:14:43;;;;;;;4.93;3.93;;;;;;;1.55;100.00;96953.00;6215040;23;20208;-86
2021/01/02 03:17:10;;;;;;;5.27;4.23;;;;;;;1.91;100.00;96955.28;6214476;23;20201;-86
2021/01/02 03:19:37;;;;;;;8.10;4.30;;;;;;;2.15;100.00;96950.44;6214761;23;20181;-86
2021/01/02 03:22:04;;;;;;;5.37;4.27;;;;;;;1.73;100.00;96954.56;6214466;23;20661;-85
2021/01/02 03:24:31;;;;;;;6.47;4.33;;;;;;;1.63;100.00;96956.84;6214455;23;20228;-86
2021/01/02 03:26:58;;;;;;;8.77;4.67;;;;;;;1.68;100.00;96951.41;6214501;23;20174;-86
2021/01/02 03:29:25;;;;;;;4.67;3.90;;;;;;;1.79;100.00;96948.19;6215054;23;20220;-86
2021/01/02 03:31:52;;;;;;;4.47;3.83;;;;;;;1.75;100.00;96954.47;6214530;23;20658;-87
2021/01/02 03:34:19;;;;;;;7.27;4.20;;;;;;;1.67;100.00;96958.34;6214688;23;20170;-87
2021/01/02 03:36:46;;;;;;;5.57;4.20;;;;;;;1.91;100.00;96965.66;6214094;23;20170;-86
2021/01/02 03:39:13;;;;;;;7.20;4.20;;;;;;;2.06;100.00;96966.50;6214538;23;20170;-86
2021/01/02 03:41:40;;;;;;;5.67;4.10;;;;;;;2.01;100.00;96964.19;6214453;23;20181;-86
2021/01/02 03:44:07;;;;;;;5.73;4.00;;;;;;;2.20;100.00;96963.13;6215168;23;20694;-87
2021/01/02 03:46:34;;;;;;;4.97;4.03;;;;;;;1.86;100.00;96968.47;6214054;23;20249;-86
2021/01/02 03:49:00;;;;;;;4.93;3.80;;;;;;;1.67;100.00;96962.69;6214670;23;20174;-86
2021/01/02 03:51:27;;;;;;;6.73;3.80;;;;;;;1.80;100.00;96971.44;6214433;23;20174;-87
2021/01/02 03:53:55;;;;;;;5.90;4.50;;;;;;;1.59;100.00;96973.50;6214647;23;20177;-87
2021/01/02 03:56:22;;;;;;;5.27;3.83;;;;;;;1.48;100.00;96975.84;6215069;23;20518;-87
2021/01/02 03:58:50;;;;;;;5.17;4.60;;;;;;;1.37;100.00;96981.59;6214692;23;20543;-86
2021/01/02 04:01:17;;;;;;;8.60;4.53;;;;;;;1.33;100.00;96974.09;6214554;23;20166;-86
2021/01/02 04:03:44;;;;;;;5.20;4.70;;;;;;;1.30;100.00;96979.44;6214571;23;20281;-86
2021/01/02 04:06:11;;;;;;;5.80;3.97;;;;;;;1.37;100.00;96979.03;6214014;23;20253;-86
2021/01/02 04:08:38;;;;;;;5.23;4.00;;;;;;;1.31;100.00;96983.69;6214673;23;20170;-86
2021/01/02 04:11:05;;;;;;;11.83;9.17;;;;;;;1.23;100.00;96986.72;6214738;23;20227;-86
2021/01/02 04:13:32;;;;;;;9.70;7.23;;;;;;;1.16;100.00;96985.38;6214341;23;20257;-86
2021/01/02 04:15:59;;;;;;;7.70;6.30;;;;;;;1.19;100.00;96988.63;6214800;23;20174;-86
2021/01/02 04:18:26;;;;;;;6.63;5.03;;;;;;;1.24;100.00;96980.59;6214031;23;20198;-86
2021/01/02 04:20:53;;;;;;;7.23;5.40;;;;;;;1.16;100.00;96991.38;6214258;23;20174;-86
2021/01/02 04:23:20;;;;;;;10.43;5.90;;;;;;;1.16;100.00;96996.56;6214557;23;20174;-86
2021/01/02 04:25:47;;;;;;;8.73;7.50;;;;;;;1.10;100.00;96994.31;6214127;23;20182;-87
2021/01/02 04:28:15;;;;;;;7.30;5.90;;;;;;;1.04;100.00;96994.66;6214282;23;20177;-87
2021/01/02 04:30:41;;;;;;;11.03;7.07;;;;;;;1.00;100.00;97000.06;6214136;23;20174;-87
2021/01/02 04:33:08;;;;;;;6.07;5.47;;;;;;;1.08;100.00;97003.91;6214369;23;20201;-86
2021/01/02 04:35:35;;;;;;;5.80;5.17;;;;;;;1.39;100.00;97007.44;6214196;23;20173;-86
2021/01/02 04:38:02;;;;;;;5.07;4.43;;;;;;;1.67;100.00;97017.13;6214596;23;20693;-86
2021/01/02 04:40:29;;;;;;;6.57;4.80;;;;;;;1.77;100.00;97018.28;6214117;23;20175;-86
2021/01/02 04:42:57;;;;;;;9.27;5.70;;;;;;;1.56;100.00;97014.25;6214741;23;20494;-86
2021/01/02 04:45:25;;;;;;;7.63;5.30;;;;;;;1.34;100.00;97019.78;6214175;23;20175;-86
2021/01/02 04:47:53;;;;;;;7.83;4.93;;;;;;;1.42;100.00;97021.06;6214027;23;20171;-86
2021/01/02 04:50:21;;;;;;;6.90;5.17;;;;;;;1.65;100.00;97026.72;6214233;23;20167;-86
2021/01/02 04:52:49;;;;;;;5.90;5.30;;;;;;;1.65;100.00;97017.19;6214145;23;20249;-86
2021/01/02 04:55:17;;;;;;;8.40;5.63;;;;;;;1.51;100.00;97019.72;6215571;23;20214;-86
2021/01/02 04:57:47;;;;;;;8.57;5.53;;;;;;;1.63;100.00;97023.41;6215903;23;20316;-86
2021/01/02 05:00:17;;;;;;;6.43;5.80;;;;;;;1.60;100.00;97026.97;6215892;23;20170;-86
2021/01/02 05:02:45;;;;;;;19.60;13.00;;;;;;;1.59;100.00;97030.50;6216561;23;20174;-86
2021/01/02 05:05:12;;;;;;;14.17;9.83;;;;;;;1.58;100.00;97036.59;6216115;23;20170;-86
2021/01/02 05:07:39;;;;;;;13.43;9.73;;;;;;;1.72;100.00;97045.34;6216222;23;20166;-86
2021/01/02 05:10:07;;;;;;;23.13;19.93;;;;;;;1.58;100.00;97040.94;6215683;23;20174;-85
2021/01/02 05:12:35;;;;;;;26.37;19.03;;;;;;;1.69;100.00;97054.13;6215732;23;20568;-86
2021/01/02 05:15:07;;;;;;;22.50;15.30;;;;;;;1.57;100.00;97050.47;6215873;23;20174;-86
2021/01/02 05:17:34;;;;;;;13.87;10.53;;;;;;;1.75;100.00;97061.56;6215662;23;20189;-86
2021/01/02 05:20:05;;;;;;;7.77;5.97;;;;;;;1.86;100.00;97060.97;6215803;23;20216;-87
2021/01/02 05:22:32;;;;;;;4.57;4.17;;;;;;;1.61;100.00;97059.75;6215498;23;20162;-86
2021/01/02 05:25:16;;;;;;;14.97;9.90;;;;;;;1.27;100.00;97065.91;6215891;23;20174;-86
2021/01/02 05:27:45;;;;;;;8.93;7.20;;;;;;;1.11;100.00;97073.66;6215596;23;20224;-86
2021/01/02 05:30:20;;;;;;;7.47;5.77;;;;;;;1.12;100.00;97072.75;6215519;23;20181;-86
2021/01/02 05:33:05;;;;;;;12.47;11.17;;;;;;;1.31;100.00;97082.94;6216275;23;20608;-86
2021/01/02 05:35:39;;;;;;;10.93;7.80;;;;;;;1.64;100.00;97088.06;6216091;23;20154;-86
2021/01/02 05:38:15;;;;;;;9.40;8.50;;;;;;;1.55;100.00;97093.75;6215570;23;20194;-86
2021/01/02 05:40:44;;;;;;;10.80;9.07;;;;;;;1.28;100.00;97090.03;6215601;23;20564;-86
2021/01/02 05:43:12;;;;;;;11.20;7.73;;;;;;;1.25;100.00;97092.78;6215727;23;20174;-86
2021/01/02 05:45:39;;;;;;;13.10;8.83;;;;;;;1.14;100.00;97096.81;6215399;23;20174;-86
2021/01/02 05:48:17;;;;;;;27.30;17.27;;;;;;;1.08;100.00;97096.28;6215904;23;20177;-86
2021/01/02 05:50:47;;;;;;;24.23;19.40;;;;;;;0.97;100.00;97107.22;6215146;23;20162;-86
2021/01/02 05:53:28;;;;;;;22.03;18.50;;;;;;;1.31;100.00;97102.84;6216031;23;20563;-86
2021/01/02 05:56:08;;;;;;;26.17;22.33;;;;;;;1.12;100.00;97111.56;6215653;23;20233;-86
2021/01/02 05:58:37;;;;;;;21.20;15.77;;;;;;;1.08;100.00;97111.81;6215882;23;20214;-86
2021/01/02 06:01:21;;;;;;;14.33;12.73;;;;;;;1.34;100.00;97110.44;6214836;23;20174;-85
2021/01/02 06:03:50;;;;;;;20.37;16.53;;;;;;;1.59;100.00;97120.31;6215373;23;20201;-84
2021/01/02 06:06:19;;;;;;;19.13;15.43;;;;;;;1.72;100.00;97117.91;6214884;23;20209;-87
2021/01/02 06:08:50;;;;;;;12.30;10.43;;;;;;;1.60;100.00;97120.25;6215593;23;20239;-85
2021/01/02 06:11:18;;;;;;;10.93;9.77;;;;;;;1.58;100.00;97121.25;6215140;23;20197;-84
2021/01/02 06:13:47;;;;;;;11.20;8.37;;;;;;;1.69;100.00;97118.91;6215614;23;20193;-84
2021/01/02 06:16:14;;;;;;;12.73;10.80;;;;;;;1.79;100.00;97127.88;6215181;23;20178;-84
2021/01/02 06:18:42;;;;;;;10.53;9.23;;;;;;;1.69;100.00;97120.66;6214801;23;20193;-84
2021/01/02 06:21:11;;;;;;;21.73;15.03;;;;;;;1.73;100.00;97120.41;6214990;23;20229;-84
2021/01/02 06:23:40;;;;;;;19.67;15.90;;;;;;;1.73;100.00;97123.00;6215109;23;20174;-86
2021/01/02 06:26:09;;;;;;;21.23;17.77;;;;;;;1.51;100.00;97128.50;6214701;23;20174;-84
2021/01/02 06:28:38;;;;;;;22.30;20.10;;;;;;;1.53;100.00;97124.09;6214883;23;20240;-86
2021/01/02 06:31:07;;;;;;;22.13;17.23;;;;;;;1.66;100.00;97119.94;6215003;23;20181;-87
2021/01/02 06:33:34;;;;;;;14.33;12.17;;;;;;;1.73;100.00;97127.34;6214989;23;20170;-86
2021/01/02 06:36:02;;;;;;;19.03;15.37;;;;;;;1.89;100.00;97131.63;6215334;23;20348;-84
2021/01/02 06:38:29;;;;;;;29.50;23.70;;;;;;;1.91;100.00;97136.75;6214365;23;20594;-84
2021/01/02 06:40:58;;;;;;;57.07;36.83;;;;;;;1.84;100.00;97133.66;6214554;23;20185;-84
2021/01/02 06:43:37;;;;;;;43.40;31.00;;;;;;;1.93;100.00;97136.66;6215222;23;20549;-85
2021/01/02 06:46:05;;;;;;;35.00;27.63;;;;;;;2.02;100.00;97138.75;6214690;23;20228;-84
2021/01/02 06:48:42;;;;;;;29.13;22.50;;;;;;;2.13;100.00;97129.44;6214868;23;20515;-84
2021/01/02 06:51:31;;;;;;;30.10;22.63;;;;;;;2.24;100.00;97128.00;6214605;23;20212;-86
2021/01/02 06:53:59;;;;;;;70.40;49.60;;;;;;;2.36;100.00;97135.09;6215335;23;20166;-85
2021/01/02 06:56:35;;;;;;;54.83;38.63;;;;;;;2.48;100.00;97136.16;6215134;23;20206;-85
2021/01/02 06:59:03;;;;;;;39.60;27.93;;;;;;;2.53;100.00;97141.91;6214638;23;20193;-84
2021/01/02 07:01:45;;;;;;;31.67;26.33;;;;;;;2.60;100.00;97140.66;6214840;23;20573;-85
2021/01/02 07:04:12;;;;;;;24.10;20.37;;;;;;;2.50;100.00;97145.53;6214585;23;20263;-85
2021/01/02 07:06:41;;;;;;;30.87;25.43;;;;;;;2.61;100.00;97150.09;6214309;23;20170;-86
2021/01/02 07:09:27;;;;;;;31.63;25.53;;;;;;;2.71;100.00;97158.22;6214683;23;20177;-85
2021/01/02 07:12:16;;;;;;;25.63;20.90;;;;;;;3.07;100.00;97150.84;6214941;23;20532;-85
2021/01/02 07:14:44;;;;;;;21.87;17.43;;;;;;;3.38;100.00;97150.78;6214700;23;20199;-85
2021/01/02 07:17:12;;;;;;;20.23;14.20;;;;;;;3.54;100.00;97141.97;6213817;23;20635;-86
2021/01/02 07:19:42;;;;;;;19.23;13.03;;;;;;;3.79;100.00;97151.69;6214529;23;20166;-85
2021/01/02 07:22:11;;;;;;;18.43;13.70;;;;;;;3.92;100.00;97145.75;6214329;23;20174;-85
2021/01/02 07:24:47;;;;;;;18.27;12.80;;;;;;;3.96;100.00;97148.03;6214700;23;20223;-85
2021/01/02 07:27:16;;;;;;;18.57;12.03;;;;;;;3.92;100.00;97146.56;6214558;23;20170;-85
2021/01/02 07:29:46;;;;;;;19.03;13.77;;;;;;;4.04;100.00;97148.38;6214645;23;20197;-85
2021/01/02 07:32:14;;;;;;;20.63;15.60;;;;;;;4.39;100.00;97144.47;6214175;23;20257;-85
2021/01/02 07:34:42;;;;;;;21.97;14.83;;;;;;;4.59;100.00;97149.22;6214111;23;20631;-85
2021/01/02 07:37:12;;;;;;;21.40;15.03;;;;;;;5.01;100.00;97145.56;6214546;23;20500;-85
2021/01/02 07:39:40;;;;;;;24.03;19.13;;;;;;;5.06;100.00;97140.06;6215032;23;20175;-85
2021/01/02 07:42:11;;;;;;;28.43;18.40;;;;;;;5.32;100.00;97138.28;6214354;23;20583;-86
2021/01/02 07:44:39;;;;;;;23.23;17.13;;;;;;;5.31;100.00;97135.78;6214979;23;20170;-85
2021/01/02 07:47:08;;;;;;;20.60;15.10;;;;;;;5.53;100.00;97125.53;6214293;23;20700;-86
2021/01/02 07:49:35;;;;;;;21.17;15.50;;;;;;;5.72;100.00;97120.72;6214621;23;20514;-85
2021/01/02 07:52:02;;;;;;;27.40;21.63;;;;;;;5.73;100.00;97129.38;6214205;23;20175;-85
2021/01/02 07:54:33;;;;;;;28.67;23.10;;;;;;;5.46;100.00;97124.28;6214427;23;20174;-86
2021/01/02 07:57:00;;;;;;;20.33;15.27;;;;;;;5.61;100.00;97123.25;6214556;23;20159;-86
2021/01/02 07:59:29;;;;;;;25.97;17.63;;;;;;;5.93;100.00;97121.00;6214400;23;20224;-86
2021/01/02 08:01:57;;;;;;;15.27;11.73;;;;;;;6.09;100.00;97123.34;6214521;23;20167;-86
2021/01/02 08:04:26;;;;;;;17.43;12.57;;;;;;;6.33;100.00;97119.91;6215038;23;20205;-85
2021/01/02 08:06:55;;;;;;;13.00;10.60;;;;;;;6.45;100.00;97126.03;6214517;23;20574;-86
2021/01/02 08:09:22;;;;;;;16.33;10.33;;;;;;;6.55;100.00;97119.19;6214381;23;20177;-86
2021/01/02 08:11:54;;;;;;;13.10;8.80;;;;;;;6.45;100.00;97116.41;6214307;23;20514;-86
2021/01/02 08:14:22;;;;;;;9.00;7.77;;;;;;;6.83;100.00;97117.97;6214407;23;20166;-86
2021/01/02 08:17:03;;;;;;;9.53;8.30;;;;;;;7.12;100.00;97114.00;6214033;23;20170;-86
2021/01/02 08:19:33;;;;;;;13.83;9.63;;;;;;;6.94;100.00;97125.00;6213946;23;20228;-86
2021/01/02 08:22:01;;;;;;;14.97;10.70;;;;;;;7.08;100.00;97124.81;6214003;23;20174;-86
2021/01/02 08:24:28;;;;;;;13.97;9.53;;;;;;;6.87;100.00;97120.25;6214809;23;20174;-86
2021/01/02 08:26:56;;;;;;;14.70;10.43;;;;;;;6.90;100.00;97119.19;6213936;23;20177;-86
2021/01/02 08:29:25;;;;;;;17.00;14.33;;;;;;;6.86;100.00;97113.34;6215451;23;20650;-86
2021/01/02 08:31:56;;;;;;;13.27;10.57;;;;;;;6.70;100.00;97112.00;6215935;23;20176;-86
2021/01/02 08:34:30;;;;;;;12.93;11.03;;;;;;;7.07;100.00;97117.91;6217079;23;20541;-85
2021/01/02 08:37:02;;;;;;;19.17;13.07;;;;;;;7.50;100.00;97115.44;6215930;23;20729;-85
2021/01/02 08:39:29;;;;;;;17.97;13.07;;;;;;;7.56;100.00;97122.00;6215868;23;20197;-85
2021/01/02 08:41:58;;;;;;;26.90;18.70;;;;;;;7.88;100.00;97124.72;6215555;23;20639;-85
2021/01/02 08:44:28;;;;;;;18.73;14.30;;;;;;;7.70;100.00;97129.63;6216291;23;20171;-85
2021/01/02 08:46:55;;;;;;;10.77;8.60;;;;;;;7.61;100.00;97122.47;6215827;23;20662;-85
2021/01/02 08:49:36;;;;;;;8.93;7.67;;;;;;;7.81;100.00;97126.97;6215580;23;20170;-85
2021/01/02 08:52:21;;;;;;;15.77;8.10;;;;;;;7.92;100.00;97120.06;6215683;23;20162;-85
2021/01/02 08:54:50;;;;;;;9.80;7.83;;;;;;;8.16;100.00;97125.97;6215833;23;20261;-85
2021/01/02 08:57:33;;;;;;;9.40;6.17;;;;;;;8.42;100.00;97116.06;6215634;23;20315;-84
2021/01/02 09:00:22;;;;;;;11.23;7.43;;;;;;;8.55;100.00;97110.63;6215749;23;20174;-85
2021/01/02 09:03:02;;;;;;;7.03;5.80;;;;;;;8.83;100.00;97111.81;6215680;23;20168;-85
2021/01/02 09:05:31;;;;;;;10.07;7.17;;;;;;;9.19;100.00;97113.19;6215697;23;20161;-85
2021/01/02 09:08:00;;;;;;;9.03;6.03;;;;;;;8.99;100.00;97104.34;6216041;23;20650;-85
2021/01/02 09:10:38;;;;;;;8.20;7.13;;;;;;;8.71;100.00;97112.84;6215633;23;20240;-84
2021/01/02 09:13:19;;;;;;;10.97;6.63;;;;;;;8.82;100.00;97113.63;6216169;23;20166;-84
2021/01/02 09:15:51;;;;;;;9.93;6.90;;;;;;;9.01;100.00;97104.25;6215525;23;20506;-84
2021/01/02 09:18:35;;;;;;;11.40;8.73;;;;;;;8.97;100.00;97105.44;6215369;23;20233;-84
2021/01/02 09:21:19;;;;;;;13.30;8.20;;;;;;;8.59;100.00;97112.09;6215795;23;20162;-84
2021/01/02 09:23:46;;;;;;;20.57;10.13;;;;;;;8.98;100.00;97112.34;6215921;23;20559;-84
2021/01/02 09:26:27;;;;;;;10.03;6.67;;;;;;;8.85;100.00;97095.97;6215371;23;20233;-84
2021/01/02 09:28:56;;;;;;;7.83;5.63;;;;;;;9.03;100.00;97102.31;6215655;23;20158;-84
2021/01/02 09:31:23;;;;;;;10.90;6.87;;;;;;;9.46;100.00;97096.91;6215585;23;20530;-85
2021/01/02 09:33:51;;;;;;;13.33;7.73;;;;;;;9.86;100.00;97098.69;6215463;23;20258;-85
2021/01/02 09:36:21;;;;;;;7.53;6.37;;;;;;;9.86;100.00;97092.59;6215244;23;20183;-85
2021/01/02 09:38:50;;;;;;;7.77;4.50;;;;;;;9.61;100.00;97092.13;6214948;23;20272;-84
2021/01/02 09:41:21;;;;;;;12.23;5.70;;;;;;;9.52;100.00;97090.28;6215162;23;20634;-85
2021/01/02 09:43:49;;;;;;;11.27;6.30;;;;;;;9.95;100.00;97089.19;6215855;23;20232;-84
2021/01/02 09:46:18;;;;;;;10.87;8.60;;;;;;;10.35;100.00;97080.41;6215524;23;20188;-85
2021/01/02 09:48:46;;;;;;;8.77;5.63;;;;;;;10.66;100.00;97071.44;6215588;23;20170;-85
2021/01/02 09:51:13;;;;;;;6.43;5.50;;;;;;;10.10;100.00;97063.34;6214739;23;20174;-83
2021/01/02 09:53:40;;;;;;;8.67;5.73;;;;;;;10.35;100.00;97065.47;6215097;23;20307;-84
2021/01/02 09:56:08;;;;;;;10.23;6.23;;;;;;;10.53;100.00;97051.66;6215041;23;20178;-84
2021/01/02 09:58:36;;;;;;;6.83;6.13;;;;;;;11.04;100.00;97061.00;6215458;23;20296;-84
2021/01/02 10:01:03;;;;;;;6.43;5.53;;;;;;;11.13;100.00;97042.56;6214622;23;20205;-84
2021/01/02 10:03:30;;;;;;;9.23;6.17;;;;;;;11.06;100.00;97033.59;6214881;23;20202;-84
2021/01/02 10:05:57;;;;;;;12.00;8.00;;;;;;;10.99;100.00;97032.50;6214866;23;20206;-84
2021/01/02 10:08:24;;;;;;;7.10;4.37;;;;;;;11.09;100.00;97032.47;6215629;23;20166;-84
2021/01/02 10:10:51;;;;;;;11.93;7.40;;;;;;;11.21;100.00;97026.06;6215101;23;20635;-88
2021/01/02 10:13:19;;;;;;;8.53;5.57;;;;;;;11.12;100.00;97027.75;6215057;23;20225;-84
2021/01/02 10:15:47;;;;;;;11.97;7.20;;;;;;;11.28;100.00;97023.69;6214855;23;20639;-84
2021/01/02 10:18:14;;;;;;;10.33;7.33;;;;;;;11.22;100.00;97019.81;6215281;23;20197;-84
2021/01/02 10:20:41;;;;;;;7.57;5.20;;;;;;;11.64;100.00;97014.94;6214857;23;20170;-84
2021/01/02 10:23:08;;;;;;;18.00;9.97;;;;;;;12.06;100.00;97003.88;6215352;23;20570;-84
2021/01/02 10:25:35;;;;;;;13.77;7.07;;;;;;;12.22;100.00;96999.75;6215057;23;20515;-83
2021/01/02 10:28:02;;;;;;;9.70;4.47;;;;;;;12.09;100.00;96992.22;6215231;23;20612;-84
2021/01/02 10:30:29;;;;;;;17.00;8.00;;;;;;;12.06;100.00;96988.06;6214340;23;20174;-84
2021/01/02 10:32:57;;;;;;;5.87;4.83;;;;;;;12.24;100.00;96980.16;6214858;23;20177;-84
2021/01/02 10:35:24;;;;;;;7.13;4.53;;;;;;;12.87;100.00;96980.97;6215102;23;20174;-84
2021/01/02 10:37:52;;;;;;;4.20;2.90;;;;;;;12.29;100.00;96977.06;6215023;23;20240;-84
2021/01/02 10:40:20;;;;;;;5.77;4.50;;;;;;;12.56;100.00;96963.78;6214264;23;20700;-84
2021/01/02 10:42:47;;;;;;;5.87;3.93;;;;;;;13.04;100.00;96966.88;6215065;23;20583;-84
2021/01/02 10:45:17;;;;;;;7.87;4.40;;;;;;;13.13;100.00;96958.03;6214645;23;20174;-84
2021/01/02 10:47:44;;;;;;;7.10;4.07;;;;;;;12.98;100.00;96955.13;6214689;23;20178;-84
2021/01/02 10:50:13;;;;;;;7.50;4.23;;;;;;;12.22;100.00;96957.56;6214573;23;20174;-84
2021/01/02 10:52:40;;;;;;;8.00;4.70;;;;;;;12.86;100.00;96948.47;6214062;23;20174;-84
2021/01/02 10:55:08;;;;;;;18.97;14.20;;;;;;;13.36;100.00;96937.19;6214561;23;20254;-84
2021/01/02 10:57:35;;;;;;;5.57;4.30;;;;;;;13.87;100.00;96943.28;6214097;23;20174;-84
2021/01/02 11:00:04;;;;;;;4.40;4.00;;;;;;;13.75;100.00;96931.34;6214494;23;20170;-84
2021/01/02 11:02:30;;;;;;;7.73;3.60;;;;;;;13.12;100.00;96931.78;6214705;23;20177;-84
2021/01/02 11:04:57;;;;;;;3.33;3.03;;;;;;;13.55;100.00;96930.84;6214258;23;20209;-84
2021/01/02 11:07:25;;;;;;;4.63;2.70;;;;;;;13.77;100.00;96924.09;6214096;23;20208;-84
2021/01/02 11:09:53;;;;;;;5.77;3.03;;;;;;;13.21;100.00;96936.13;6214470;23;20180;-85
2021/01/02 11:12:20;;;;;;;3.53;2.40;;;;;;;12.78;100.00;96933.44;6214298;23;20183;-84
2021/01/02 11:14:47;;;;;;;4.30;2.43;;;;;;;13.01;100.00;96924.97;6214219;23;20210;-84
2021/01/02 11:17:14;;;;;;;3.27;2.73;;;;;;;12.72;100.00;96926.16;6214288;23;20682;-84
2021/01/02 11:19:41;;;;;;;3.90;2.30;;;;;;;13.06;100.00;96926.16;6214399;23;20194;-84
2021/01/02 11:22:08;;;;;;;4.00;2.60;;;;;;;13.13;100.00;96923.72;6213818;23;20185;-84
2021/01/02 11:24:40;;;;;;;4.90;2.40;;;;;;;12.83;100.00;96928.50;6214509;23;20170;-84
2021/01/02 11:27:08;;;;;;;2.60;2.40;;;;;;;12.84;100.00;96921.41;6214643;23;20168;-84
2021/01/02 11:29:35;;;;;;;3.10;2.67;;;;;;;13.40;100.00;96922.69;6214286;23;20181;-84
2021/01/02 11:32:05;;;;;;;5.60;3.40;;;;;;;13.50;100.00;96910.16;6213715;23;20177;-84
2021/01/02 11:34:32;;;;;;;5.63;4.70;;;;;;;12.48;100.00;96924.19;6215103;23;20166;-84
2021/01/02 11:37:00;;;;;;;5.27;4.53;;;;;;;12.81;100.00;96919.09;6214092;23;20181;-84
2021/01/02 11:39:28;;;;;;;8.30;5.77;;;;;;;13.04;100.00;96922.03;6213885;23;20198;-84
2021/01/02 11:41:56;;;;;;;9.47;6.80;;;;;;;13.66;100.00;96924.41;6214065;23;20170;-84
2021/01/02 11:44:25;;;;;;;4.93;4.53;;;;;;;13.48;100.00;96925.38;6214211;23;20178;-84
2021/01/02 11:46:54;;;;;;;5.07;4.00;;;;;;;13.30;100.00;96914.91;6213985;23;20181;-84
2021/01/02 11:49:23;;;;;;;3.63;2.30;;;;;;;13.36;100.00;96918.72;6213825;23;20180;-84
2021/01/02 11:51:51;;;;;;;7.10;3.10;;;;;;;12.75;100.00;96922.38;6214331;23;20500;-83
2021/01/02 11:54:18;;;;;;;7.87;5.20;;;;;;;13.16;100.00;96914.63;6214539;23;20244;-84
2021/01/02 11:56:46;;;;;;;4.33;3.87;;;;;;;13.38;100.00;96915.94;6213889;23;20653;-84
2021/01/02 11:59:14;;;;;;;4.87;3.50;;;;;;;13.45;100.00;96924.88;6213679;23;20276;-84